createdAt,value
2023-02-19T00:02:39.517Z,4.88
2023-02-19T00:07:43.996Z,4.79
2023-02-19T00:12:48.513Z,4.82
2023-02-19T00:17:54.273Z,4.79
2023-02-19T00:22:58.660Z,4.83
2023-02-19T00:28:03.294Z,4.90
2023-02-19T00:33:09.448Z,4.88
2023-02-19T00:38:14.080Z,4.93
2023-02-19T00:43:18.306Z,4.82
2023-02-19T00:48:23.930Z,4.80
2023-02-19T00:53:28.304Z,4.80
2023-02-19T00:58:32.909Z,4.84
2023-02-19T01:03:40.229Z,4.80
2023-02-19T01:08:44.974Z,4.80
2023-02-19T01:13:49.558Z,4.88
2023-02-19T01:18:57.785Z,4.94
2023-02-19T01:24:02.146Z,4.90
2023-02-19T01:29:06.609Z,4.95
2023-02-19T01:34:13.908Z,4.98
2023-02-19T01:39:18.643Z,4.89
2023-02-19T01:45:18.965Z,4.89
2023-02-19T01:50:29.138Z,4.90
2023-02-19T01:55:35.850Z,4.92
2023-02-19T02:00:40.452Z,4.93
2023-02-19T02:05:55.297Z,4.95
2023-02-19T02:10:59.852Z,4.86
2023-02-19T02:16:21.469Z,4.86
2023-02-19T02:21:54.174Z,4.85
2023-02-19T02:27:22.876Z,4.83
2023-02-19T02:32:34.415Z,4.85
2023-02-19T02:37:43.590Z,4.83
2023-02-19T02:42:49.565Z,4.80
2023-02-19T02:47:58.541Z,4.77
2023-02-19T02:53:27.284Z,4.77
2023-02-19T02:58:32.605Z,4.72
2023-02-19T03:03:43.522Z,4.71
2023-02-19T03:08:55.088Z,4.75
2023-02-19T03:14:25.328Z,4.71
2023-02-19T03:19:36.624Z,4.68
2023-02-19T03:25:04.750Z,4.68
2023-02-19T03:30:16.210Z,4.76
2023-02-19T03:35:25.797Z,4.81
2023-02-19T03:40:35.699Z,4.86
2023-02-19T03:45:49.607Z,4.86
2023-02-19T03:51:06.044Z,4.75
2023-02-19T03:56:17.535Z,4.85
2023-02-19T04:01:29.178Z,4.89
2023-02-19T04:06:37.265Z,4.98
2023-02-19T04:11:42.650Z,5.03
2023-02-19T04:16:55.922Z,5.10
2023-02-19T04:22:02.957Z,5.01
2023-02-19T04:27:09.939Z,5.03
2023-02-19T04:32:15.307Z,5.04
2023-02-19T04:37:21.280Z,5.03
2023-02-19T04:42:25.782Z,5.04
2023-02-19T04:47:30.291Z,5.04
2023-02-19T04:52:37.494Z,5.06
2023-02-19T04:57:42.635Z,5.05
2023-02-19T05:02:47.014Z,5.09
2023-02-19T05:07:52.661Z,5.09
2023-02-19T05:12:58.002Z,5.10
2023-02-19T05:18:02.349Z,5.14
2023-02-19T05:23:08.302Z,5.17
2023-02-19T05:28:19.130Z,5.24
2023-02-19T05:33:25.309Z,5.23
2023-02-19T05:38:31.014Z,5.27
2023-02-19T05:43:35.580Z,5.24
2023-02-19T05:48:40.141Z,5.19
2023-02-19T05:53:47.388Z,5.21
2023-02-19T05:58:53.095Z,5.28
2023-02-19T06:03:58.027Z,5.32
2023-02-19T06:09:03.846Z,5.27
2023-02-19T06:14:08.448Z,5.28
2023-02-19T06:19:12.833Z,5.35
2023-02-19T06:24:19.905Z,5.37
2023-02-19T06:29:24.596Z,5.38
2023-02-19T06:34:28.989Z,5.42
2023-02-19T06:39:34.750Z,5.32
2023-02-19T06:44:39.144Z,5.27
2023-02-19T06:49:43.521Z,5.33
2023-02-19T06:54:49.084Z,5.28
2023-02-19T06:59:53.768Z,5.31
2023-02-19T07:04:57.878Z,5.25
2023-02-19T07:10:03.923Z,5.17
2023-02-19T07:15:09.363Z,5.20
2023-02-19T07:20:15.098Z,5.02
2023-02-19T07:25:21.982Z,4.82
2023-02-19T07:30:26.795Z,4.67
2023-02-19T07:35:31.219Z,4.42
2023-02-19T07:40:37.416Z,4.47
2023-02-19T07:45:41.793Z,4.49
2023-02-19T07:50:53.245Z,4.40
2023-02-19T07:56:02.755Z,4.18
2023-02-19T08:01:14.742Z,4.01
2023-02-19T08:06:19.469Z,3.86
2023-02-19T08:11:42.764Z,3.74
2023-02-19T08:16:50.956Z,3.64
2023-02-19T08:21:55.128Z,3.74
2023-02-19T08:27:00.977Z,3.70
2023-02-19T08:32:05.759Z,3.42
2023-02-19T08:37:10.359Z,3.56
2023-02-19T08:42:16.160Z,3.46
2023-02-19T08:47:20.586Z,3.44
2023-02-19T08:52:24.961Z,3.40
2023-02-19T08:57:30.825Z,3.39
2023-02-19T09:02:36.000Z,3.35
2023-02-19T09:07:40.343Z,3.67
2023-02-19T09:12:45.932Z,3.45
2023-02-19T09:17:53.040Z,3.49
2023-02-19T09:23:01.213Z,3.34
2023-02-19T09:28:07.041Z,3.33
2023-02-19T09:33:11.635Z,3.31
2023-02-19T09:38:15.999Z,3.14
2023-02-19T09:43:24.513Z,3.14
2023-02-19T09:48:29.168Z,3.08
2023-02-19T09:53:40.858Z,3.15
2023-02-19T09:58:51.430Z,3.34
2023-02-19T10:03:56.788Z,3.41
2023-02-19T10:09:23.780Z,3.38
2023-02-19T10:14:37.465Z,3.48
2023-02-19T10:19:42.021Z,3.47
2023-02-19T10:24:51.763Z,3.67
2023-02-19T10:29:58.914Z,3.65
2023-02-19T10:35:13.204Z,3.74
2023-02-19T10:40:20.722Z,3.76
2023-02-19T10:45:34.965Z,3.71
2023-02-19T10:50:43.129Z,3.95
2023-02-19T10:55:47.694Z,3.66
2023-02-19T11:01:13.573Z,3.67
2023-02-19T11:06:21.435Z,3.74
2023-02-19T11:11:33.350Z,3.70
2023-02-19T11:16:45.961Z,3.56
2023-02-19T11:21:50.843Z,3.81
2023-02-19T11:26:55.158Z,4.14
2023-02-19T11:32:26.174Z,4.23
2023-02-19T11:37:31.146Z,4.04
2023-02-19T11:42:45.686Z,4.24
2023-02-19T11:48:33.842Z,4.29
2023-02-19T11:53:49.669Z,4.14
2023-02-19T11:59:05.102Z,3.84
2023-02-19T12:04:58.131Z,3.62
2023-02-19T12:10:13.314Z,3.93
2023-02-19T12:15:51.568Z,4.16
2023-02-19T12:21:15.362Z,4.12
2023-02-19T12:26:26.205Z,3.96
2023-02-19T12:32:21.712Z,3.87
2023-02-19T12:37:39.335Z,3.72
2023-02-19T12:43:01.662Z,3.72
2023-02-19T12:48:15.100Z,3.70
2023-02-19T12:53:36.882Z,3.49
2023-02-19T12:58:46.666Z,3.33
2023-02-19T13:04:12.482Z,3.37
2023-02-19T13:09:24.390Z,3.35
2023-02-19T13:14:35.012Z,3.44
2023-02-19T13:19:40.289Z,3.64
2023-02-19T13:24:47.897Z,3.76
2023-02-19T13:30:11.618Z,3.93
2023-02-19T13:35:45.036Z,3.95
2023-02-19T13:40:59.224Z,3.83
2023-02-19T13:46:07.957Z,3.71
2023-02-19T13:51:46.972Z,3.68
2023-02-19T13:57:28.718Z,3.81
2023-02-19T14:02:35.606Z,3.72
2023-02-19T14:07:55.502Z,3.74
2023-02-19T14:13:01.568Z,3.81
2023-02-19T14:18:45.311Z,3.74
2023-02-19T14:23:55.440Z,3.76
2023-02-19T14:29:02.978Z,3.78
2023-02-19T14:34:19.641Z,3.67
2023-02-19T14:39:27.389Z,3.62
2023-02-19T14:44:46.664Z,3.52
2023-02-19T14:49:56.594Z,3.57
2023-02-19T14:55:07.284Z,3.51
2023-02-19T15:00:26.551Z,3.41
2023-02-19T15:05:34.044Z,3.35
2023-02-19T15:10:39.290Z,3.32
2023-02-19T15:15:47.415Z,3.24
2023-02-19T15:20:59.673Z,3.31
2023-02-19T15:26:04.384Z,3.20
2023-02-19T15:31:16.876Z,3.11
2023-02-19T15:36:29.224Z,3.18
2023-02-19T15:41:36.100Z,3.04
2023-02-19T15:46:45.088Z,2.93
2023-02-19T15:51:55.470Z,2.84
2023-02-19T15:57:06.414Z,2.86
2023-02-19T16:02:14.625Z,2.88
2023-02-19T16:07:28.016Z,2.81
2023-02-19T16:12:33.454Z,2.81
2023-02-19T16:17:39.073Z,2.83
2023-02-19T16:22:44.300Z,2.74
2023-02-19T16:27:48.458Z,2.64
2023-02-19T16:33:36.290Z,2.64
2023-02-19T16:38:40.493Z,2.65
2023-02-19T16:43:45.327Z,2.58
2023-02-19T16:48:52.531Z,2.47
2023-02-19T16:53:56.903Z,2.48
2023-02-19T16:59:01.125Z,2.49
2023-02-19T17:04:12.734Z,2.51
2023-02-19T17:09:17.102Z,2.41
2023-02-19T17:14:21.690Z,2.28
2023-02-19T17:19:27.979Z,2.16
2023-02-19T17:24:32.838Z,2.12
2023-02-19T17:29:37.205Z,2.03
2023-02-19T17:34:43.260Z,1.95
2023-02-19T17:39:47.602Z,1.92
2023-02-19T17:44:53.506Z,1.95
2023-02-19T17:49:59.087Z,1.89
2023-02-19T17:55:03.527Z,1.78
2023-02-19T18:00:09.892Z,1.71
2023-02-19T18:05:19.434Z,1.58
2023-02-19T18:10:24.856Z,1.47
2023-02-19T18:15:30.425Z,1.43
2023-02-19T18:20:35.988Z,1.30
2023-02-19T18:25:41.122Z,1.30
2023-02-19T18:30:45.708Z,1.26
2023-02-19T18:35:51.362Z,1.14
2023-02-19T18:40:57.365Z,1.08
2023-02-19T18:46:03.297Z,1.08
2023-02-19T18:51:10.932Z,1.03
2023-02-19T18:56:15.816Z,1.05
2023-02-19T19:01:20.001Z,1.02
2023-02-19T19:06:25.894Z,0.99
2023-02-19T19:11:30.353Z,0.95
2023-02-19T19:16:35.356Z,0.92
2023-02-19T19:21:41.121Z,0.92
2023-02-19T19:26:46.917Z,0.87
2023-02-19T19:31:51.869Z,0.77
2023-02-19T19:36:57.442Z,0.73
2023-02-19T19:42:01.524Z,0.69
2023-02-19T19:47:05.882Z,0.67
2023-02-19T19:52:11.626Z,0.66
2023-02-19T19:57:17.647Z,0.59
2023-02-19T20:02:22.831Z,0.67
2023-02-19T20:07:29.418Z,0.62
2023-02-19T20:12:33.760Z,0.60
2023-02-19T20:17:38.559Z,0.60
2023-02-19T20:22:44.320Z,0.54
2023-02-19T20:27:49.550Z,0.54
2023-02-19T20:32:54.679Z,0.55
2023-02-19T20:38:00.643Z,0.46
2023-02-19T20:43:05.052Z,0.44
2023-02-19T20:48:09.428Z,0.46
2023-02-19T20:53:15.239Z,0.38
2023-02-19T20:58:21.038Z,0.43
2023-02-19T21:03:25.806Z,0.43
2023-02-19T21:08:31.764Z,0.48
2023-02-19T21:13:36.346Z,0.56
2023-02-19T21:18:40.707Z,0.53
2023-02-19T21:23:47.110Z,0.47
2023-02-19T21:28:52.677Z,0.43
2023-02-19T21:33:57.076Z,0.33
2023-02-19T21:39:03.333Z,0.31
2023-02-19T21:44:07.753Z,0.31
2023-02-19T21:49:12.951Z,0.35
2023-02-19T21:54:22.216Z,0.30
2023-02-19T21:59:26.613Z,0.29
2023-02-19T22:04:30.813Z,0.27
2023-02-19T22:09:38.618Z,0.26
2023-02-19T22:14:42.783Z,0.21
2023-02-19T22:19:47.373Z,0.19
2023-02-19T22:24:53.164Z,0.24
2023-02-19T22:29:57.384Z,0.21
2023-02-19T22:35:01.772Z,0.21
2023-02-19T22:40:09.157Z,0.18
2023-02-19T22:45:14.629Z,0.20
2023-02-19T22:50:22.470Z,0.18
2023-02-19T22:55:28.028Z,0.13
2023-02-19T23:00:32.440Z,0.14
2023-02-19T23:05:36.794Z,0.18
2023-02-19T23:10:42.611Z,0.25
2023-02-19T23:15:47.114Z,0.21
2023-02-19T23:20:51.518Z,0.20
2023-02-19T23:25:57.351Z,0.24
2023-02-19T23:31:02.118Z,0.31
2023-02-19T23:36:07.471Z,0.34
2023-02-19T23:41:15.449Z,0.36
2023-02-19T23:46:20.147Z,0.41
2023-02-19T23:51:25.116Z,0.35
2023-02-19T23:56:31.545Z,0.36
